Fort Walton Beach, Florida
Current Conditions -  °F | °C
As of 2:56 AM on Thursday 23 Oct 2014 (Local Time) from KQBL Reporting Station
Scattered Clouds Scattered Clouds  
Wind Chill: 54°   Ceiling: Unl
Heat Index: 54°   Visibility: 10mi
Dew Point: 45°   Wind: 3mph
Humidity: 74%   Direction: 350°N
Pressure: 30.06"   Gusts: NA
Location:  30.4°N, 86.61°W
Report Text: KQBL 230756Z AUTO 35003KT 10SM SCT240 12/07 A3006 RMK AO2 SLP186 T01200074
Loading
Personal Weather Stations






























Interactive Weather Map New forecast layout! Learn more

10-Day Weather Forecast

Advertisements
Track Severe Weather on mobile